• Join FlightAware (Why Join?)
  • Login
  • US Flag 
08:46PM EST


 

Airport Tracker/Info


-or-


 

Live Flight TrackerFlight Track Log ✈ SWA3667 ✈ 13-Apr-2013 ✈ KLAS - KTUS

Flight Track Log - Related Links

Times and Time Zones

All times are in EDT time to prevent confusion due to time zone crossing. See the SWA3667 flight status page for this flight to view local times or setup timezone preferences in your user account.

Time Position Orientation Groundspeed Altitude Reporting Facility
EDT Latitude Longitude Course Direction KTS MPH feet Rate Location/Type
08:33PM 36.0764 -115.1600 269° West 149 171 3,000  Level Los Angeles Center
08:34PM 36.0761 -115.1789 269° West 164 189 3,400 2,220 Climbing Los Angeles Center
08:35PM 36.0675 -115.2481 261° West 219 252 6,000 2,400 Climbing Los Angeles Center
08:36PM 36.0103 -115.2828 206° Southwest 280 322 8,100 2,040 Climbing Los Angeles Center
08:36PM 36.0036 -115.2797 160° South 265 305 8,400 2,700 Climbing Los Angeles Center
08:37PM 35.9642 -115.1997 121° Southeast 324 373 10,900 3,000 Climbing Los Angeles Center
08:37PM 35.9583 -115.1667 102° East 315 362 11,500 2,100 Climbing Los Angeles Center
08:38PM 35.9428 -115.0694 101° East 346 398 13,600 2,460 Climbing Los Angeles Center
08:39PM 35.9156 -114.9200 103° East 366 421 16,600 2,640 Climbing Los Angeles Center
08:40PM 35.8908 -114.7842 103° East 400 460 19,100 2,100 Climbing Los Angeles Center
08:41PM 35.8642 -114.6458 103° East 414 476 21,000 1,800 Climbing Los Angeles Center
08:42PM 35.8119 -114.5119 116° Southeast 437 503 22,900 1,860 Climbing Los Angeles Center
08:43PM 35.7428 -114.3844 124° Southeast 446 513 24,900 1,560 Climbing Los Angeles Center
08:44PM 35.6633 -114.2333 123° Southeast 459 528 26,200 1,320 Climbing Los Angeles Center
08:45PM 35.5900 -114.0975 124° Southeast 475 547 27,700 1,500 Climbing Los Angeles Center
08:46PM 35.5156 -113.9583 123° Southeast 488 562 29,300 1,380 Climbing Los Angeles Center
08:47PM 35.4408 -113.8186 123° Southeast 494 568 30,600 1,260 Climbing Los Angeles Center
08:48PM 35.3792 -113.7050 124° Southeast 503 579 32,000 1,140 Climbing Los Angeles Center
08:49PM 35.2714 -113.5086 124° Southeast 501 577 33,000 480 Climbing Los Angeles Center
08:50PM 35.1950 -113.3669 123° Southeast 505 581 33,000  Level Los Angeles Center
08:51PM 35.1178 -113.2281 124° Southeast 503 579 33,000  Level Los Angeles Center
08:52PM 35.0472 -113.1261 130° Southeast 506 582 33,000  Level Albuquerque Center
08:53PM 34.9006 -113.0331 153° Southeast 503 579 33,000  Level Albuquerque Center
08:54PM 34.7789 -112.9633 155° Southeast 494 568 33,000  Level Albuquerque Center
08:55PM 34.6550 -112.8928 155° Southeast 494 568 33,000  Level Albuquerque Center
08:56PM 34.5319 -112.8233 155° Southeast 493 567 33,000  Level Albuquerque Center
08:57PM 34.4125 -112.7539 154° Southeast 491 565 33,000  Level Albuquerque Center
08:58PM 34.2872 -112.6836 155° Southeast 494 568 33,000 -300 Level Albuquerque Center
08:59PM 34.1400 -112.6008 155° Southeast 491 565 32,500 -540 Descending Albuquerque Center
09:00PM 34.0192 -112.5336 155° Southeast 482 555 31,900 -540 Descending Albuquerque Center
09:01PM 33.9017 -112.4675 155° Southeast 473 544 31,400 -480 Descending Albuquerque Center
09:02PM 33.7806 -112.3992 155° Southeast 481 554 31,000 -240 Descending Albuquerque Center
09:03PM 33.6581 -112.3319 155° Southeast 488 562 31,000  Level Albuquerque Center
09:04PM 33.5367 -112.2633 155° Southeast 487 560 31,000 -300 Level Albuquerque Center
09:05PM 33.4133 -112.1953 155° Southeast 489 563 30,500 -840 Descending Albuquerque Center
09:06PM 33.2653 -112.1147 156° South 490 564 29,400 -1,020 Descending Albuquerque Center
09:07PM 33.1411 -112.0475 156° South 491 565 28,500 -900 Descending Albuquerque Center
09:08PM 33.0153 -111.9783 155° Southeast 496 571 27,600 -1,560 Descending Albuquerque Center
09:09PM 32.8911 -111.9086 155° Southeast 495 570 25,400 -2,460 Descending Albuquerque Center
09:11PM 32.7831 -111.8208 146° Southeast 474 545 22,600 -2,760 Descending Albuquerque Center
09:12PM 32.6789 -111.7350 145° Southeast 459 528 19,800 -2,880 Descending Albuquerque Center
09:12PM 32.6264 -111.6956 148° Southeast 450 518 18,500 -2,700 Descending Albuquerque Center
09:13PM 32.5803 -111.6558 144° Southeast 437 503 17,100 -2,760 Descending Albuquerque Center
09:13PM 32.5178 -111.5853 136° Southeast 422 486 15,200 -2,580 Descending Albuquerque Center
09:14PM 32.5039 -111.5561 119° Southeast 418 481 14,500 -2,220 Descending Albuquerque Center
09:14PM 32.4475 -111.4853 133° Southeast 393 452 13,000 -2,340 Descending Albuquerque Center
09:15PM 32.4169 -111.4444 132° Southeast 391 450 12,100 -1,620 Descending Albuquerque Center
09:15PM 32.3778 -111.4003 136° Southeast 360 414 11,400 -1,320 Descending Albuquerque Center
09:16PM 32.3511 -111.3653 132° Southeast 354 407 10,800 -1,140 Descending Albuquerque Center
09:16PM 32.3164 -111.3258 136° Southeast 323 372 10,300 -1,020 Descending Albuquerque Center
09:17PM 32.2914 -111.2928 132° Southeast 320 368 9,800 -1,140 Descending Albuquerque Center
09:17PM 32.2519 -111.2475 136° Southeast 308 354 9,200 -900 Descending Albuquerque Center
09:18PM 32.2319 -111.2208 132° Southeast 309 356 8,900 -1,200 Descending Albuquerque Center
09:18PM 32.1931 -111.1750 135° Southeast 308 354 8,000 -1,500 Descending Albuquerque Center
09:19PM 32.1731 -111.1497 133° Southeast 305 351 7,400 -1,500 Descending Albuquerque Center
09:19PM 32.1369 -111.1069 135° Southeast 293 337 6,500 -1,620 Descending Albuquerque Center
09:20PM 32.1172 -111.0800 131° Southeast 299 344 5,800 -1,740 Descending Albuquerque Center
09:20PM 32.0808 -111.0392 136° Southeast 289 333 4,800 -1,080 Descending Albuquerque Center
09:21PM 32.0650 -111.0097 122° Southeast 292 336 4,700 -180 Descending Albuquerque Center
09:21PM 32.0494 -110.9769 119° Southeast 255 293 4,700 -120 Level Albuquerque Center
09:22PM 32.0508 -110.9281 88° East 267 307 4,600 -600 Descending Albuquerque Center
09:22PM 32.0606 -110.9136 52° Northeast 206 237 4,100 -1,260 Descending Albuquerque Center
09:23PM 32.0950 -110.9144 359° North 145 167 3,000 -1,140 Descending Albuquerque Center
09:25PM 32.1000 -110.9333 344° North  Level FlightAware Approximate